Terminal Aerodrome Forecast
Issued by NWS

Home | Current Version | Previous Version | Text Only | Print | Product List | Glossary On
Versions: 1 2 3 4 5 6 7 8 9 10 11 12 13
449
FTUS45 KABQ 260530
TAFLVS
TAF
KLVS 260530Z 2606/2706 33012KT P6SM SCT050 BKN110
     FM260800 35012KT P6SM SCT040 BKN060
     FM261200 02011KT P6SM SCT030
     FM261800 23011G19KT P6SM SCT040
     FM262100 26020G30KT P6SM SCT050=

USA.gov is the U.S. government's official web portal to all federal, state and local government web resources and services.